sensor_id;sensor_type;location;lat;lon;timestamp;pressure;altitude;pressure_sealevel;temperature;humidity
54882;BME280;40775;51.448;4.742;2022-10-26T00:01:15;101218.25;;;13.76;93.48
54882;BME280;40775;51.448;4.742;2022-10-26T00:03:44;101219.22;;;13.82;93.65
54882;BME280;40775;51.448;4.742;2022-10-26T00:06:15;101214.81;;;13.81;93.41
54882;BME280;40775;51.448;4.742;2022-10-26T00:08:46;101207.78;;;13.82;93.72
54882;BME280;40775;51.448;4.742;2022-10-26T00:11:14;101206.03;;;13.82;93.50
54882;BME280;40775;51.448;4.742;2022-10-26T00:13:42;101213.06;;;13.83;93.67
54882;BME280;40775;51.448;4.742;2022-10-26T00:16:18;101206.94;;;13.86;93.79
54882;BME280;40775;51.448;4.742;2022-10-26T00:18:46;101198.16;;;13.87;93.67
54882;BME280;40775;51.448;4.742;2022-10-26T00:21:14;101198.19;;;13.88;93.51
54882;BME280;40775;51.448;4.742;2022-10-26T00:23:42;101201.69;;;13.87;93.69
54882;BME280;40775;51.448;4.742;2022-10-26T00:26:09;101195.53;;;13.87;93.79
54882;BME280;40775;51.448;4.742;2022-10-26T00:28:36;101198.22;;;13.91;93.43
54882;BME280;40775;51.448;4.742;2022-10-26T00:31:12;101206.06;;;13.87;93.47
54882;BME280;40775;51.448;4.742;2022-10-26T00:33:40;101200.78;;;13.85;93.76
54882;BME280;40775;51.448;4.742;2022-10-26T00:36:07;101194.66;;;13.89;93.97
54882;BME280;40775;51.448;4.742;2022-10-26T00:38:36;101199.03;;;13.86;94.20
54882;BME280;40775;51.448;4.742;2022-10-26T00:41:04;101195.53;;;13.88;93.89
54882;BME280;40775;51.448;4.742;2022-10-26T00:43:32;101184.16;;;13.92;94.18
54882;BME280;40775;51.448;4.742;2022-10-26T00:46:01;101184.16;;;13.92;93.84
54882;BME280;40775;51.448;4.742;2022-10-26T00:48:37;101186.78;;;13.91;93.69
54882;BME280;40775;51.448;4.742;2022-10-26T00:51:12;101185.91;;;13.92;93.77
54882;BME280;40775;51.448;4.742;2022-10-26T00:53:41;101176.22;;;13.92;93.89
54882;BME280;40775;51.448;4.742;2022-10-26T00:56:08;101179.78;;;13.95;93.94
54882;BME280;40775;51.448;4.742;2022-10-26T00:58:36;101178.84;;;13.89;93.87
54882;BME280;40775;51.448;4.742;2022-10-26T01:01:03;101177.13;;;13.95;93.69
54882;BME280;40775;51.448;4.742;2022-10-26T01:03:31;101178.03;;;13.97;93.84
54882;BME280;40775;51.448;4.742;2022-10-26T01:05:59;101172.69;;;13.90;93.67
54882;BME280;40775;51.448;4.742;2022-10-26T01:08:26;101167.44;;;13.93;93.97
54882;BME280;40775;51.448;4.742;2022-10-26T01:10:56;101177.13;;;13.93;94.01
54882;BME280;40775;51.448;4.742;2022-10-26T01:13:27;101168.31;;;13.94;94.04
54882;BME280;40775;51.448;4.742;2022-10-26T01:27:35;101166.56;;;13.93;94.16
54882;BME280;40775;51.448;4.742;2022-10-26T01:30:39;101155.19;;;13.97;93.85
54882;BME280;40775;51.448;4.742;2022-10-26T01:36:15;101146.41;;;14.00;94.06
54882;BME280;40775;51.448;4.742;2022-10-26T01:39:35;101149.97;;;14.02;93.78
54882;BME280;40775;51.448;4.742;2022-10-26T01:41:49;101147.22;;;13.96;94.10
54882;BME280;40775;51.448;4.742;2022-10-26T01:44:35;101148.97;;;13.95;94.18
54882;BME280;40775;51.448;4.742;2022-10-26T01:47:10;101144.66;;;13.99;94.60
54882;BME280;40775;51.448;4.742;2022-10-26T01:49:43;101143.75;;;13.98;94.20
54882;BME280;40775;51.448;4.742;2022-10-26T01:52:13;101138.53;;;14.03;94.32
54882;BME280;40775;51.448;4.742;2022-10-26T01:54:40;101142.03;;;14.02;94.06
54882;BME280;40775;51.448;4.742;2022-10-26T01:57:09;101148.22;;;14.04;94.12
54882;BME280;40775;51.448;4.742;2022-10-26T01:59:46;101142.03;;;14.02;94.57
54882;BME280;40775;51.448;4.742;2022-10-26T02:08:18;101134.09;;;14.00;94.51
54882;BME280;40775;51.448;4.742;2022-10-26T02:11:28;101131.50;;;14.05;94.54
54882;BME280;40775;51.448;4.742;2022-10-26T02:14:23;101125.31;;;14.00;94.27
54882;BME280;40775;51.448;4.742;2022-10-26T02:17:01;101126.19;;;14.02;94.47
54882;BME280;40775;51.448;4.742;2022-10-26T02:22:26;101131.50;;;14.03;94.55
54882;BME280;40775;51.448;4.742;2022-10-26T02:24:55;101123.56;;;14.03;94.38
54882;BME280;40775;51.448;4.742;2022-10-26T02:27:31;101119.19;;;14.04;94.40
54882;BME280;40775;51.448;4.742;2022-10-26T02:30:02;101117.41;;;14.03;94.43
54882;BME280;40775;51.448;4.742;2022-10-26T02:32:34;101106.81;;;13.98;94.64
54882;BME280;40775;51.448;4.742;2022-10-26T02:35:04;101113.88;;;13.99;94.54
54882;BME280;40775;51.448;4.742;2022-10-26T02:37:33;101113.00;;;14.00;94.71
54882;BME280;40775;51.448;4.742;2022-10-26T02:40:07;101115.63;;;14.00;94.72
54882;BME280;40775;51.448;4.742;2022-10-26T02:42:36;101109.50;;;14.04;94.91
54882;BME280;40775;51.448;4.742;2022-10-26T02:45:10;101111.25;;;14.04;94.58
54882;BME280;40775;51.448;4.742;2022-10-26T02:47:38;101111.28;;;14.07;94.89
54882;BME280;40775;51.448;4.742;2022-10-26T02:50:05;101106.00;;;14.07;94.46
54882;BME280;40775;51.448;4.742;2022-10-26T02:55:52;101103.38;;;14.07;94.53
54882;BME280;40775;51.448;4.742;2022-10-26T02:58:28;101095.44;;;14.07;94.69
54882;BME280;40775;51.448;4.742;2022-10-26T03:00:57;101106.91;;;14.07;94.61
54882;BME280;40775;51.448;4.742;2022-10-26T03:03:24;101098.97;;;14.06;94.61
54882;BME280;40775;51.448;4.742;2022-10-26T03:05:51;101108.66;;;14.08;94.55
54882;BME280;40775;51.448;4.742;2022-10-26T03:08:19;101104.22;;;14.03;94.80
54882;BME280;40775;51.448;4.742;2022-10-26T03:10:46;101106.03;;;14.10;94.50
54882;BME280;40775;51.448;4.742;2022-10-26T03:13:13;101102.50;;;14.09;94.64
54882;BME280;40775;51.448;4.742;2022-10-26T03:15:40;101100.72;;;14.07;94.64
54882;BME280;40775;51.448;4.742;2022-10-26T03:18:07;101109.53;;;14.06;94.76
54882;BME280;40775;51.448;4.742;2022-10-26T03:20:34;101104.28;;;14.09;94.69
54882;BME280;40775;51.448;4.742;2022-10-26T03:23:01;101102.50;;;14.08;94.87
54882;BME280;40775;51.448;4.742;2022-10-26T03:25:28;101106.03;;;14.10;95.09
54882;BME280;40775;51.448;4.742;2022-10-26T03:28:00;101100.75;;;14.08;94.63
54882;BME280;40775;51.448;4.742;2022-10-26T03:30:29;101099.88;;;14.09;94.93
54882;BME280;40775;51.448;4.742;2022-10-26T03:32:56;101106.06;;;14.11;94.74
54882;BME280;40775;51.448;4.742;2022-10-26T03:35:23;101106.06;;;14.11;95.21
54882;BME280;40775;51.448;4.742;2022-10-26T03:37:50;101106.03;;;14.08;95.20
54882;BME280;40775;51.448;4.742;2022-10-26T03:40:18;101101.66;;;14.10;95.12
54882;BME280;40775;51.448;4.742;2022-10-26T03:42:45;101099.03;;;14.12;94.99
54882;BME280;40775;51.448;4.742;2022-10-26T03:45:12;101099.03;;;14.13;94.90
54882;BME280;40775;51.448;4.742;2022-10-26T03:47:46;101096.38;;;14.10;95.28
54882;BME280;40775;51.448;4.742;2022-10-26T03:50:16;101094.66;;;14.17;94.58
54882;BME280;40775;51.448;4.742;2022-10-26T03:52:45;101098.16;;;14.16;94.60
54882;BME280;40775;51.448;4.742;2022-10-26T03:55:13;101093.78;;;14.16;94.60
54882;BME280;40775;51.448;4.742;2022-10-26T03:57:42;101091.13;;;14.15;94.89
54882;BME280;40775;51.448;4.742;2022-10-26T04:00:12;101095.53;;;14.17;94.84
54882;BME280;40775;51.448;4.742;2022-10-26T04:02:52;101085.88;;;14.18;94.58
54882;BME280;40775;51.448;4.742;2022-10-26T04:05:19;101096.44;;;14.21;94.37
54882;BME280;40775;51.448;4.742;2022-10-26T04:08:12;101077.06;;;14.19;94.83
54882;BME280;40775;51.448;4.742;2022-10-26T04:10:39;101089.41;;;14.21;94.76
54882;BME280;40775;51.448;4.742;2022-10-26T04:13:08;101085.03;;;14.22;94.87
54882;BME280;40775;51.448;4.742;2022-10-26T04:15:35;101086.78;;;14.21;94.59
54882;BME280;40775;51.448;4.742;2022-10-26T04:18:02;101087.66;;;14.20;94.68
54882;BME280;40775;51.448;4.742;2022-10-26T04:20:32;101094.69;;;14.20;94.96
54882;BME280;40775;51.448;4.742;2022-10-26T04:23:05;101087.72;;;14.25;94.96
54882;BME280;40775;51.448;4.742;2022-10-26T04:25:32;101090.31;;;14.22;94.84
54882;BME280;40775;51.448;4.742;2022-10-26T04:28:01;101092.97;;;14.23;94.81
54882;BME280;40775;51.448;4.742;2022-10-26T04:30:30;101096.53;;;14.27;94.60
54882;BME280;40775;51.448;4.742;2022-10-26T04:32:57;101095.59;;;14.22;94.34
54882;BME280;40775;51.448;4.742;2022-10-26T04:35:24;101099.16;;;14.26;94.37
54882;BME280;40775;51.448;4.742;2022-10-26T04:38:00;101100.06;;;14.29;94.51
54882;BME280;40775;51.448;4.742;2022-10-26T04:40:28;101091.25;;;14.27;94.46
54882;BME280;40775;51.448;4.742;2022-10-26T04:42:56;101097.44;;;14.31;94.47
54882;BME280;40775;51.448;4.742;2022-10-26T04:45:25;101098.28;;;14.27;94.34
54882;BME280;40775;51.448;4.742;2022-10-26T04:48:12;101106.25;;;14.30;94.12
54882;BME280;40775;51.448;4.742;2022-10-26T04:50:39;101106.25;;;14.30;94.32
54882;BME280;40775;51.448;4.742;2022-10-26T04:53:07;101100.97;;;14.30;94.16
54882;BME280;40775;51.448;4.742;2022-10-26T04:55:35;101111.50;;;14.28;94.07
54882;BME280;40775;51.448;4.742;2022-10-26T04:58:03;101107.13;;;14.30;93.94
54882;BME280;40775;51.448;4.742;2022-10-26T05:00:32;101101.81;;;14.26;94.28
54882;BME280;40775;51.448;4.742;2022-10-26T05:03:04;101109.75;;;14.27;94.25
54882;BME280;40775;51.448;4.742;2022-10-26T05:05:34;101116.72;;;14.22;94.51
54882;BME280;40775;51.448;4.742;2022-10-26T05:08:01;101125.50;;;14.22;94.33
54882;BME280;40775;51.448;4.742;2022-10-26T05:10:28;101115.78;;;14.18;94.35
54882;BME280;40775;51.448;4.742;2022-10-26T05:12:58;101121.09;;;14.20;94.41
54882;BME280;40775;51.448;4.742;2022-10-26T05:15:26;101117.53;;;14.16;94.76
54882;BME280;40775;51.448;4.742;2022-10-26T05:17:59;101116.63;;;14.14;94.81
54882;BME280;40775;51.448;4.742;2022-10-26T05:20:29;101114.03;;;14.17;94.83
54882;BME280;40775;51.448;4.742;2022-10-26T05:23:05;101114.91;;;14.18;94.75
54882;BME280;40775;51.448;4.742;2022-10-26T05:25:36;101118.44;;;14.18;94.87
54882;BME280;40775;51.448;4.742;2022-10-26T05:28:06;101116.69;;;14.19;95.05
54882;BME280;40775;51.448;4.742;2022-10-26T05:30:35;101115.84;;;14.23;94.59
54882;BME280;40775;51.448;4.742;2022-10-26T05:33:02;101119.34;;;14.23;95.04
54882;BME280;40775;51.448;4.742;2022-10-26T05:35:31;101120.22;;;14.22;95.12
54882;BME280;40775;51.448;4.742;2022-10-26T05:37:58;101116.78;;;14.25;95.06
54882;BME280;40775;51.448;4.742;2022-10-26T05:40:26;101124.63;;;14.23;94.87
54882;BME280;40775;51.448;4.742;2022-10-26T05:42:59;101122.00;;;14.22;94.82
54882;BME280;40775;51.448;4.742;2022-10-26T05:45:27;101130.56;;;14.94;95.71
54882;BME280;40775;51.448;4.742;2022-10-26T05:47:54;101124.16;;;16.59;94.05
54882;BME280;40775;51.448;4.742;2022-10-26T05:50:27;101096.63;;;17.42;90.52
54882;BME280;40775;51.448;4.742;2022-10-26T05:52:54;101085.78;;;17.94;86.72
54882;BME280;40775;51.448;4.742;2022-10-26T05:55:22;101068.78;;;18.19;82.95
54882;BME280;40775;51.448;4.742;2022-10-26T05:57:49;101091.66;;;14.73;88.58
54882;BME280;40775;51.448;4.742;2022-10-26T06:00:23;101094.06;;;14.45;92.05
54882;BME280;40775;51.448;4.742;2022-10-26T06:03:34;101094.84;;;14.35;93.23
54882;BME280;40775;51.448;4.742;2022-10-26T06:06:06;101096.56;;;14.30;93.94
54882;BME280;40775;51.448;4.742;2022-10-26T06:08:38;101101.84;;;14.32;94.15
54882;BME280;40775;51.448;4.742;2022-10-26T06:11:05;101097.44;;;14.31;94.41
54882;BME280;40775;51.448;4.742;2022-10-26T06:13:34;101097.44;;;14.31;94.70
54882;BME280;40775;51.448;4.742;2022-10-26T06:19:15;101099.19;;;14.29;95.04
54882;BME280;40775;51.448;4.742;2022-10-26T06:28:37;101101.84;;;14.32;94.94
54882;BME280;40775;51.448;4.742;2022-10-26T06:31:13;101107.13;;;14.30;94.76
54882;BME280;40775;51.448;4.742;2022-10-26T06:33:41;101123.84;;;14.28;94.72
54882;BME280;40775;51.448;4.742;2022-10-26T06:36:22;101125.59;;;14.27;94.84
54882;BME280;40775;51.448;4.742;2022-10-26T06:39:04;101118.56;;;14.29;94.79
54882;BME280;40775;51.448;4.742;2022-10-26T06:41:37;101122.97;;;14.32;94.95
54882;BME280;40775;51.448;4.742;2022-10-26T06:44:20;101125.59;;;14.27;95.01
54882;BME280;40775;51.448;4.742;2022-10-26T06:47:13;101127.34;;;14.25;95.03
54882;BME280;40775;51.448;4.742;2022-10-26T06:52:40;101148.53;;;14.34;94.79
54882;BME280;40775;51.448;4.742;2022-10-26T06:55:14;101146.78;;;14.36;94.75
54882;BME280;40775;51.448;4.742;2022-10-26T06:57:45;101135.34;;;14.36;94.95
54882;BME280;40775;51.448;4.742;2022-10-26T07:00:23;101136.22;;;14.36;94.49
54882;BME280;40775;51.448;4.742;2022-10-26T07:02:51;101151.22;;;14.39;94.64
54882;BME280;40775;51.448;4.742;2022-10-26T07:05:19;101158.25;;;14.37;94.71
54882;BME280;40775;51.448;4.742;2022-10-26T07:07:46;101168.78;;;14.35;94.74
54882;BME280;40775;51.448;4.742;2022-10-26T07:10:15;101188.19;;;14.39;94.84
54882;BME280;40775;51.448;4.742;2022-10-26T07:12:42;101185.56;;;14.39;95.16
54882;BME280;40775;51.448;4.742;2022-10-26T07:15:09;101189.09;;;14.41;95.41
54882;BME280;40775;51.448;4.742;2022-10-26T07:17:44;101185.69;;;14.49;95.36
54882;BME280;40775;51.448;4.742;2022-10-26T07:20:14;101184.81;;;14.50;95.56
54882;BME280;40775;51.448;4.742;2022-10-26T07:22:41;101191.91;;;14.55;95.55
54882;BME280;40775;51.448;4.742;2022-10-26T07:25:09;101192.81;;;14.55;95.39
54882;BME280;40775;51.448;4.742;2022-10-26T07:27:38;101188.44;;;14.59;95.70
54882;BME280;40775;51.448;4.742;2022-10-26T07:30:06;101198.16;;;14.63;95.80
54882;BME280;40775;51.448;4.742;2022-10-26T07:32:33;101207.84;;;14.64;96.20
54882;BME280;40775;51.448;4.742;2022-10-26T07:35:00;101206.97;;;14.65;96.08
54882;BME280;40775;51.448;4.742;2022-10-26T07:37:27;101210.53;;;14.70;96.48
54882;BME280;40775;51.448;4.742;2022-10-26T07:39:54;101214.06;;;14.69;96.58
54882;BME280;40775;51.448;4.742;2022-10-26T07:42:33;101215.88;;;14.76;96.53
54882;BME280;40775;51.448;4.742;2022-10-26T07:45:04;101211.56;;;14.84;96.78
54882;BME280;40775;51.448;4.742;2022-10-26T07:47:31;101212.47;;;14.86;96.86
54882;BME280;40775;51.448;4.742;2022-10-26T07:49:58;101216.03;;;14.93;96.55
54882;BME280;40775;51.448;4.742;2022-10-26T07:52:28;101224.88;;;14.96;97.23
54882;BME280;40775;51.448;4.742;2022-10-26T07:55:03;101235.50;;;15.04;97.28
54882;BME280;40775;51.448;4.742;2022-10-26T07:57:33;101239.13;;;15.12;97.73
54882;BME280;40775;51.448;4.742;2022-10-26T08:00:00;101234.75;;;15.17;97.56
54882;BME280;40775;51.448;4.742;2022-10-26T08:02:30;101247.16;;;15.27;97.43
54882;BME280;40775;51.448;4.742;2022-10-26T08:05:00;101244.56;;;15.33;97.00
54882;BME280;40775;51.448;4.742;2022-10-26T08:07:27;101245.50;;;15.37;97.04
54882;BME280;40775;51.448;4.742;2022-10-26T08:09:55;101244.66;;;15.44;97.08
54882;BME280;40775;51.448;4.742;2022-10-26T08:12:22;101239.41;;;15.53;97.37
54882;BME280;40775;51.448;4.742;2022-10-26T08:14:49;101240.41;;;15.61;96.87
54882;BME280;40775;51.448;4.742;2022-10-26T08:17:16;101228.94;;;15.65;97.23
54882;BME280;40775;51.448;4.742;2022-10-26T08:19:43;101236.03;;;15.72;97.16
54882;BME280;40775;51.448;4.742;2022-10-26T08:22:13;101225.47;;;15.80;97.18
54882;BME280;40775;51.448;4.742;2022-10-26T08:24:45;101225.50;;;15.82;97.41
54882;BME280;40775;51.448;4.742;2022-10-26T08:27:13;101231.69;;;15.88;97.22
54882;BME280;40775;51.448;4.742;2022-10-26T08:29:41;101236.19;;;16.00;97.44
54882;BME280;40775;51.448;4.742;2022-10-26T08:32:08;101223.84;;;16.05;96.92
54882;BME280;40775;51.448;4.742;2022-10-26T08:34:35;101236.19;;;16.07;97.21
54882;BME280;40775;51.448;4.742;2022-10-26T08:37:02;101233.63;;;16.20;97.09
54882;BME280;40775;51.448;4.742;2022-10-26T08:39:29;101249.53;;;16.30;96.95
54882;BME280;40775;51.448;4.742;2022-10-26T08:42:37;101262.78;;;16.33;96.53
54882;BME280;40775;51.448;4.742;2022-10-26T08:45:25;101273.41;;;16.43;96.90
54882;BME280;40775;51.448;4.742;2022-10-26T08:48:13;101283.16;;;16.50;96.81
54882;BME280;40775;51.448;4.742;2022-10-26T08:56:31;101283.25;;;16.69;96.59
54882;BME280;40775;51.448;4.742;2022-10-26T09:00:10;101300.06;;;16.85;96.38
54882;BME280;40775;51.448;4.742;2022-10-26T09:02:37;101297.44;;;16.91;95.87
54882;BME280;40775;51.448;4.742;2022-10-26T09:05:14;101302.78;;;16.99;95.91
54882;BME280;40775;51.448;4.742;2022-10-26T09:07:59;101294.81;;;17.04;95.77
54882;BME280;40775;51.448;4.742;2022-10-26T09:10:42;101292.16;;;17.13;95.85
54882;BME280;40775;51.448;4.742;2022-10-26T09:13:40;101296.56;;;17.20;95.43
54882;BME280;40775;51.448;4.742;2022-10-26T09:19:34;101298.38;;;17.32;95.46
54882;BME280;40775;51.448;4.742;2022-10-26T09:22:27;101300.13;;;17.34;95.15
54882;BME280;40775;51.448;4.742;2022-10-26T09:25:28;101301.88;;;17.44;95.11
54882;BME280;40775;51.448;4.742;2022-10-26T09:28:00;101299.25;;;17.56;94.66
54882;BME280;40775;51.448;4.742;2022-10-26T09:30:27;101308.06;;;17.65;94.85
54882;BME280;40775;51.448;4.742;2022-10-26T09:33:11;101316.06;;;17.68;94.23
54882;BME280;40775;51.448;4.742;2022-10-26T09:36:22;101316.94;;;17.82;94.54
54882;BME280;40775;51.448;4.742;2022-10-26T09:39:09;101328.44;;;17.90;94.13
54882;BME280;40775;51.448;4.742;2022-10-26T09:41:53;101327.53;;;17.92;94.13
54882;BME280;40775;51.448;4.742;2022-10-26T09:44:33;101334.59;;;18.09;94.00
54882;BME280;40775;51.448;4.742;2022-10-26T09:47:30;101341.66;;;18.16;93.82
54882;BME280;40775;51.448;4.742;2022-10-26T09:52:33;101344.25;;;18.27;93.57
54882;BME280;40775;51.448;4.742;2022-10-26T09:55:00;101342.44;;;18.35;93.70
54882;BME280;40775;51.448;4.742;2022-10-26T09:57:28;101347.75;;;18.42;93.90
54882;BME280;40775;51.448;4.742;2022-10-26T09:59:56;101345.97;;;18.44;93.29
54882;BME280;40775;51.448;4.742;2022-10-26T10:02:39;101349.53;;;18.45;92.74
54882;BME280;40775;51.448;4.742;2022-10-26T10:05:35;101364.56;;;18.52;92.93
54882;BME280;40775;51.448;4.742;2022-10-26T10:08:18;101363.66;;;18.62;93.47
54882;BME280;40775;51.448;4.742;2022-10-26T10:11:10;101360.06;;;18.60;93.32
54882;BME280;40775;51.448;4.742;2022-10-26T10:13:44;101372.53;;;18.64;93.49
54882;BME280;40775;51.448;4.742;2022-10-26T10:16:22;101391.09;;;18.72;92.71
54882;BME280;40775;51.448;4.742;2022-10-26T10:18:58;101387.56;;;18.71;93.20
54882;BME280;40775;51.448;4.742;2022-10-26T10:21:46;101387.53;;;18.79;93.03
54882;BME280;40775;51.448;4.742;2022-10-26T10:24:27;101391.94;;;18.80;93.32
54882;BME280;40775;51.448;4.742;2022-10-26T10:27:02;101388.38;;;18.84;93.03
54882;BME280;40775;51.448;4.742;2022-10-26T10:30:18;101390.13;;;18.93;92.74
54882;BME280;40775;51.448;4.742;2022-10-26T10:32:31;101421.97;;;19.06;92.75
54882;BME280;40775;51.448;4.742;2022-10-26T10:35:23;101414.81;;;19.16;92.56
54882;BME280;40775;51.448;4.742;2022-10-26T10:37:51;101418.44;;;19.03;91.60
54882;BME280;40775;51.448;4.742;2022-10-26T10:40:24;101413.91;;;19.15;91.78
54882;BME280;40775;51.448;4.742;2022-10-26T10:43:12;101432.56;;;19.14;91.80
54882;BME280;40775;51.448;4.742;2022-10-26T10:45:40;101421.91;;;19.17;91.17
54882;BME280;40775;51.448;4.742;2022-10-26T10:48:27;101423.66;;;19.24;91.92
54882;BME280;40775;51.448;4.742;2022-10-26T10:51:08;101420.13;;;19.22;91.55
54882;BME280;40775;51.448;4.742;2022-10-26T10:53:51;101422.75;;;19.25;91.69
54882;BME280;40775;51.448;4.742;2022-10-26T11:07:37;101425.09;;;19.71;91.49
54882;BME280;40775;51.448;4.742;2022-10-26T11:10:14;101432.22;;;19.69;90.39
54882;BME280;40775;51.448;4.742;2022-10-26T11:12:58;101427.78;;;19.69;89.99
54882;BME280;40775;51.448;4.742;2022-10-26T11:15:32;101432.19;;;19.78;90.02
54882;BME280;40775;51.448;4.742;2022-10-26T11:18:07;101441.00;;;19.83;90.04
54882;BME280;40775;51.448;4.742;2022-10-26T11:20:49;101437.41;;;19.87;89.39
54882;BME280;40775;51.448;4.742;2022-10-26T11:23:37;101440.91;;;19.95;90.07
54882;BME280;40775;51.448;4.742;2022-10-26T11:26:17;101434.66;;;20.01;89.52
54882;BME280;40775;51.448;4.742;2022-10-26T11:29:00;101447.91;;;20.07;88.98
54882;BME280;40775;51.448;4.742;2022-10-26T11:31:39;101441.66;;;20.11;88.23
54882;BME280;40775;51.448;4.742;2022-10-26T11:37:36;101452.16;;;20.28;86.80
54882;BME280;40775;51.448;4.742;2022-10-26T11:43:29;101461.84;;;20.36;86.04
54882;BME280;40775;51.448;4.742;2022-10-26T11:46:03;101455.66;;;20.34;85.48
54882;BME280;40775;51.448;4.742;2022-10-26T11:54:47;101460.03;;;20.43;83.96
54882;BME280;40775;51.448;4.742;2022-10-26T11:57:18;101461.75;;;20.47;82.79
54882;BME280;40775;51.448;4.742;2022-10-26T12:00:05;101451.03;;;20.53;82.58
54882;BME280;40775;51.448;4.742;2022-10-26T12:02:40;101455.41;;;20.60;82.25
54882;BME280;40775;51.448;4.742;2022-10-26T12:05:17;101452.75;;;20.60;81.68
54882;BME280;40775;51.448;4.742;2022-10-26T12:08:13;101453.59;;;20.64;82.25
54882;BME280;40775;51.448;4.742;2022-10-26T12:10:49;101457.97;;;20.70;82.08
54882;BME280;40775;51.448;4.742;2022-10-26T12:13:30;101450.97;;;20.61;80.75
54882;BME280;40775;51.448;4.742;2022-10-26T12:16:18;101449.88;;;20.76;81.18
54882;BME280;40775;51.448;4.742;2022-10-26T12:18:53;101444.47;;;20.80;81.26
54882;BME280;40775;51.448;4.742;2022-10-26T12:21:29;101445.28;;;20.88;81.57
54882;BME280;40775;51.448;4.742;2022-10-26T12:24:01;101454.19;;;20.89;82.12
54882;BME280;40775;51.448;4.742;2022-10-26T12:34:22;101461.34;;;20.85;81.64
54882;BME280;40775;51.448;4.742;2022-10-26T12:39:31;101466.63;;;20.90;81.72
54882;BME280;40775;51.448;4.742;2022-10-26T12:52:50;101477.13;;;21.04;79.44
54882;BME280;40775;51.448;4.742;2022-10-26T12:58:50;101468.13;;;21.12;79.28
54882;BME280;40775;51.448;4.742;2022-10-26T13:01:43;101473.38;;;21.18;79.37
54882;BME280;40775;51.448;4.742;2022-10-26T13:07:33;101478.81;;;21.12;79.48
54882;BME280;40775;51.448;4.742;2022-10-26T13:12:56;101469.78;;;21.21;79.32
54882;BME280;40775;51.448;4.742;2022-10-26T13:15:32;101475.09;;;21.22;78.65
54882;BME280;40775;51.448;4.742;2022-10-26T13:20:35;101470.69;;;21.20;77.54
54882;BME280;40775;51.448;4.742;2022-10-26T13:23:15;101479.53;;;21.26;77.44
54882;BME280;40775;51.448;4.742;2022-10-26T13:26:21;101478.63;;;21.27;77.75
54882;BME280;40775;51.448;4.742;2022-10-26T13:29:02;101483.13;;;21.24;78.04
54882;BME280;40775;51.448;4.742;2022-10-26T13:34:13;101490.13;;;21.33;78.57
54882;BME280;40775;51.448;4.742;2022-10-26T13:36:48;101485.75;;;21.25;78.58
54882;BME280;40775;51.448;4.742;2022-10-26T13:39:40;101490.31;;;21.17;79.15
54882;BME280;40775;51.448;4.742;2022-10-26T13:42:15;101505.47;;;21.15;78.86
54882;BME280;40775;51.448;4.742;2022-10-26T13:47:43;101503.66;;;21.17;78.58
54882;BME280;40775;51.448;4.742;2022-10-26T13:50:28;101498.28;;;21.19;78.94
54882;BME280;40775;51.448;4.742;2022-10-26T13:53:10;101513.47;;;21.15;79.22
54882;BME280;40775;51.448;4.742;2022-10-26T13:56:01;101528.59;;;21.16;79.47
54882;BME280;40775;51.448;4.742;2022-10-26T13:58:44;101527.72;;;21.16;78.47
54882;BME280;40775;51.448;4.742;2022-10-26T14:01:17;101528.56;;;21.18;77.99
54882;BME280;40775;51.448;4.742;2022-10-26T14:03:47;101528.53;;;21.21;77.27
54882;BME280;40775;51.448;4.742;2022-10-26T14:06:41;101527.69;;;21.17;77.43
54882;BME280;40775;51.448;4.742;2022-10-26T14:09:15;101522.28;;;21.22;77.01
54882;BME280;40775;51.448;4.742;2022-10-26T14:14:21;101530.31;;;21.20;76.74
54882;BME280;40775;51.448;4.742;2022-10-26T14:16:51;101525.84;;;21.22;76.92
54882;BME280;40775;51.448;4.742;2022-10-26T14:21:58;101537.44;;;21.21;76.42
54882;BME280;40775;51.448;4.742;2022-10-26T14:24:32;101541.03;;;21.17;76.69
54882;BME280;40775;51.448;4.742;2022-10-26T14:27:18;101541.97;;;21.15;76.21
54882;BME280;40775;51.448;4.742;2022-10-26T14:29:46;101554.47;;;21.11;76.93
54882;BME280;40775;51.448;4.742;2022-10-26T14:32:33;101557.16;;;21.08;77.26
54882;BME280;40775;51.448;4.742;2022-10-26T14:35:02;101558.97;;;21.05;77.14
54882;BME280;40775;51.448;4.742;2022-10-26T14:37:55;101567.09;;;20.97;77.33
54882;BME280;40775;51.448;4.742;2022-10-26T14:40:28;101566.22;;;20.95;76.73
54882;BME280;40775;51.448;4.742;2022-10-26T14:42:58;101572.41;;;20.97;76.59
54882;BME280;40775;51.448;4.742;2022-10-26T14:45:31;101573.31;;;20.96;76.85
54882;BME280;40775;51.448;4.742;2022-10-26T14:48:31;101581.34;;;20.94;76.82
54882;BME280;40775;51.448;4.742;2022-10-26T14:51:20;101591.16;;;20.92;76.77
54882;BME280;40775;51.448;4.742;2022-10-26T14:53:56;101597.41;;;20.90;77.41
54882;BME280;40775;51.448;4.742;2022-10-26T14:59:26;101601.03;;;20.84;78.03
54882;BME280;40775;51.448;4.742;2022-10-26T15:01:55;101601.03;;;20.81;78.42
54882;BME280;40775;51.448;4.742;2022-10-26T15:07:23;101603.75;;;20.77;78.57
54882;BME280;40775;51.448;4.742;2022-10-26T15:10:00;101588.66;;;20.74;78.89
54882;BME280;40775;51.448;4.742;2022-10-26T15:12:34;101596.66;;;20.76;78.91
54882;BME280;40775;51.448;4.742;2022-10-26T15:15:22;101602.88;;;20.75;78.50
54882;BME280;40775;51.448;4.742;2022-10-26T15:17:55;101602.00;;;20.76;78.97
54882;BME280;40775;51.448;4.742;2022-10-26T15:20:26;101615.34;;;20.76;78.97
54882;BME280;40775;51.448;4.742;2022-10-26T15:23:00;101609.06;;;20.80;78.47
54882;BME280;40775;51.448;4.742;2022-10-26T15:25:34;101612.59;;;20.85;78.56
54882;BME280;40775;51.448;4.742;2022-10-26T15:31:26;101618.06;;;20.71;79.79
54882;BME280;40775;51.448;4.742;2022-10-26T15:36:24;101627.03;;;20.64;79.99
54882;BME280;40775;51.448;4.742;2022-10-26T15:38:52;101629.63;;;20.68;79.56